Time;durP1;ratioP1;P1;durP2;ratioP2;P2;SDS_P1;SDS_P2;PMS_P1;PMS_P2;Temp;Humidity;BMP_temperature;BMP_pressure;BME280_temperature;BME280_humidity;BME280_pressure;Samples;Min_cycle;Max_cycle;Signal;HPM_P1;HPM_P2
2023/03/12 00:00:50;;;;;;;7.15;3.80;;;;;;;5.03;55.59;100904.41;3608773;39;20354;-69
2023/03/12 00:03:16;;;;;;;9.95;4.20;;;;;;;5.05;55.58;100901.69;3611699;39;20058;-69
2023/03/12 00:05:43;;;;;;;10.93;4.18;;;;;;;5.04;55.73;100900.84;3612553;39;20078;-69
2023/03/12 00:08:11;;;;;;;7.22;4.18;;;;;;;4.40;55.89;100800.22;3608400;39;20070;-68
2023/03/12 00:10:39;;;;;;;7.78;3.50;;;;;;;5.02;55.24;100901.81;3613666;39;20075;-68
2023/03/12 00:13:07;;;;;;;6.82;3.70;;;;;;;5.00;55.89;100887.66;3606908;39;20061;-68
2023/03/12 00:15:36;;;;;;;8.48;4.03;;;;;;;5.01;55.73;100892.06;3602250;39;20416;-68
2023/03/12 00:18:02;;;;;;;7.90;3.85;;;;;;;5.01;55.05;100890.28;3610111;39;20389;-68
2023/03/12 00:20:28;;;;;;;7.03;3.60;;;;;;;4.98;55.71;100879.75;3611022;39;20074;-68
2023/03/12 00:22:53;;;;;;;5.97;3.45;;;;;;;5.03;55.25;100877.75;3609402;39;20749;-68
2023/03/12 00:25:20;;;;;;;10.35;3.60;;;;;;;5.06;54.85;100871.44;3607831;39;20062;-68
2023/03/12 00:27:46;;;;;;;9.02;3.33;;;;;;;5.07;54.08;100868.75;3610736;39;20047;-69
2023/03/12 00:30:12;;;;;;;6.97;3.58;;;;;;;5.08;54.02;100856.28;3605237;39;20089;-68
2023/03/12 00:32:38;;;;;;;8.27;3.75;;;;;;;4.92;53.90;100831.16;3610149;39;20062;-69
2023/03/12 00:35:05;;;;;;;8.98;4.07;;;;;;;5.09;53.53;100855.34;3607477;39;20463;-69
2023/03/12 00:37:34;;;;;;;8.43;3.67;;;;;;;5.08;53.51;100853.63;3612149;39;20400;-69
2023/03/12 00:40:04;;;;;;;7.22;3.67;;;;;;;5.09;53.73;100852.69;3603620;39;20055;-69
2023/03/12 00:42:30;;;;;;;5.28;3.67;;;;;;;5.11;53.37;100845.50;3605853;39;20078;-69
2023/03/12 00:44:56;;;;;;;5.55;3.50;;;;;;;5.14;53.21;100848.06;3608355;39;20065;-69
2023/03/12 00:47:22;;;;;;;8.73;3.60;;;;;;;5.14;53.57;100845.41;3608575;39;20047;-68
2023/03/12 00:49:47;;;;;;;6.65;3.97;;;;;;;5.08;53.63;100832.31;3610613;39;20095;-70
2023/03/12 00:52:13;;;;;;;8.48;3.78;;;;;;;5.15;53.20;100838.25;3607895;39;20116;-70
2023/03/12 00:54:38;;;;;;;5.35;3.72;;;;;;;5.17;53.10;100837.28;3612890;39;20507;-70
2023/03/12 00:57:04;;;;;;;7.45;3.95;;;;;;;5.19;53.37;100847.84;3612342;39;20050;-70
2023/03/12 00:59:30;;;;;;;6.75;3.80;;;;;;;5.20;53.41;100847.81;3609922;39;20051;-69
2023/03/12 01:01:56;;;;;;;8.75;3.80;;;;;;;5.22;53.09;100840.63;3607173;39;20058;-69
2023/03/12 01:04:22;;;;;;;9.63;3.97;;;;;;;5.16;52.95;100837.31;3603145;39;20058;-70
2023/03/12 01:06:48;;;;;;;6.88;3.80;;;;;;;5.19;52.86;100835.41;3606672;39;20049;-69
2023/03/12 01:09:13;;;;;;;6.95;3.85;;;;;;;5.19;52.79;100830.06;3600898;39;21271;-69
2023/03/12 01:11:39;;;;;;;9.35;3.50;;;;;;;4.89;52.96;100771.75;3615921;39;20153;-69
2023/03/12 01:14:08;;;;;;;5.45;3.45;;;;;;;5.20;53.08;100818.50;3613294;39;20308;-69
2023/03/12 01:16:33;;;;;;;7.22;3.60;;;;;;;5.21;52.79;100814.91;3613012;39;20063;-69
2023/03/12 01:19:01;;;;;;;7.65;3.80;;;;;;;5.20;53.00;100813.19;3616501;39;20073;-69
2023/03/12 01:21:29;;;;;;;6.00;3.47;;;;;;;5.19;52.89;100810.56;3611619;39;20451;-69
2023/03/12 01:23:56;;;;;;;8.68;3.60;;;;;;;5.19;52.56;100811.41;3612696;39;20336;-69
2023/03/12 01:26:23;;;;;;;8.88;3.65;;;;;;;5.10;52.66;100791.31;3610865;39;20058;-69
2023/03/12 01:28:49;;;;;;;9.02;3.67;;;;;;;5.18;52.62;100809.69;3614533;39;20058;-69
2023/03/12 01:31:18;;;;;;;8.73;3.95;;;;;;;5.18;53.11;100812.34;3612181;39;20082;-69
2023/03/12 01:33:49;;;;;;;8.82;3.95;;;;;;;5.05;53.52;100789.78;3616721;39;20062;-69
2023/03/12 01:36:27;;;;;;;11.18;4.32;;;;;;;5.25;53.52;100819.16;3610501;39;20063;-69
2023/03/12 01:38:57;;;;;;;10.77;3.97;;;;;;;5.28;53.13;100819.03;3612174;39;20151;-69
2023/03/12 01:41:26;;;;;;;7.35;4.40;;;;;;;5.29;53.45;100815.44;3612664;39;20047;-69
2023/03/12 01:43:51;;;;;;;9.25;3.97;;;;;;;5.28;52.93;100803.06;3608263;39;20423;-69
2023/03/12 01:46:37;;;;;;;10.77;3.92;;;;;;;5.27;52.95;100795.13;3610484;39;20060;-69
2023/03/12 01:49:17;;;;;;;9.63;3.97;;;;;;;5.25;53.06;100787.19;3612125;39;20055;-70
2023/03/12 01:52:02;;;;;;;9.35;4.05;;;;;;;5.23;52.94;100777.50;3606084;39;20324;-69
2023/03/12 01:54:43;;;;;;;7.35;3.90;;;;;;;5.21;52.54;100795.38;3610215;39;20059;-68
2023/03/12 01:57:17;;;;;;;8.63;3.88;;;;;;;5.20;53.25;100791.84;3609341;39;20115;-69
2023/03/12 01:59:58;;;;;;;;;;;;;;;5.17;52.68;100781.31;3608719;39;20157;-69
2023/03/12 02:02:28;;;;;;;6.88;3.90;;;;;;;5.16;53.63;100779.56;3611760;39;20271;-69
2023/03/12 02:05:37;;;;;;;7.85;3.78;;;;;;;5.15;53.40;100774.31;3611608;39;20050;-69
2023/03/12 02:08:04;;;;;;;9.10;4.00;;;;;;;5.16;53.15;100771.56;3588486;39;20062;-69
2023/03/12 02:10:29;;;;;;;6.82;3.70;;;;;;;5.16;53.37;100766.25;3611294;39;20055;-68
2023/03/12 02:12:55;;;;;;;6.50;3.50;;;;;;;5.18;53.93;100766.19;3607602;39;20112;-69
2023/03/12 02:15:22;;;;;;;8.93;4.25;;;;;;;5.16;53.69;100766.25;3610305;39;20115;-69
2023/03/12 02:17:48;;;;;;;8.23;4.25;;;;;;;5.17;53.34;100762.66;3611782;39;20278;-69
2023/03/12 02:20:26;;;;;;;7.00;3.83;;;;;;;5.15;53.93;100748.53;3598266;39;20077;-69
2023/03/12 02:23:18;;;;;;;9.05;4.13;;;;;;;5.13;53.84;100747.72;3609022;39;20107;-68
2023/03/12 02:25:50;;;;;;;8.50;4.43;;;;;;;4.97;53.82;100715.50;3614718;39;20047;-69
2023/03/12 02:28:22;;;;;;;10.88;4.45;;;;;;;4.44;54.23;100625.34;3608490;39;20098;-69
2023/03/12 02:30:52;;;;;;;10.05;4.47;;;;;;;5.08;54.83;100736.41;3609624;39;20119;-69
2023/03/12 02:33:18;;;;;;;7.47;3.83;;;;;;;5.11;55.50;100741.59;3613084;39;20412;-69
2023/03/12 02:35:47;;;;;;;7.10;4.45;;;;;;;5.09;54.89;100746.13;3610302;39;20102;-69
2023/03/12 02:38:27;;;;;;;8.00;4.32;;;;;;;5.12;54.86;100743.31;3599593;39;20051;-69
2023/03/12 02:41:00;;;;;;;8.23;4.43;;;;;;;5.06;55.69;100727.59;3610575;39;20051;-69
2023/03/12 02:43:27;;;;;;;7.20;3.88;;;;;;;5.14;55.56;100744.13;3610732;39;20047;-68
2023/03/12 02:45:54;;;;;;;9.05;4.40;;;;;;;5.14;55.28;100749.47;3607169;39;20404;-69
2023/03/12 02:48:20;;;;;;;8.77;4.43;;;;;;;5.12;55.76;100753.97;3610039;39;20063;-68
2023/03/12 02:50:46;;;;;;;8.13;4.30;;;;;;;5.11;56.23;100752.25;3608707;39;20055;-69
2023/03/12 02:53:12;;;;;;;9.25;4.47;;;;;;;5.12;56.08;100749.50;3610126;39;20039;-68
2023/03/12 02:55:37;;;;;;;9.45;4.30;;;;;;;4.86;56.48;100699.97;3607245;39;20114;-72
2023/03/12 02:58:03;;;;;;;6.25;4.38;;;;;;;5.10;57.34;100750.50;3610154;39;20069;-69
2023/03/12 03:00:31;;;;;;;10.40;4.63;;;;;;;5.13;57.94;100745.03;3607607;39;20069;-68
2023/03/12 03:03:00;;;;;;;8.75;4.60;;;;;;;4.74;58.67;100679.16;3597667;39;20055;-68
2023/03/12 03:05:26;;;;;;;6.78;4.35;;;;;;;5.02;58.98;100716.19;3612785;39;20066;-67
2023/03/12 03:07:52;;;;;;;10.80;4.40;;;;;;;5.08;59.36;100734.59;3611197;39;20062;-67
2023/03/12 03:10:18;;;;;;;10.30;4.80;;;;;;;5.05;60.52;100728.53;3609148;39;20397;-67
2023/03/12 03:12:44;;;;;;;8.68;4.72;;;;;;;4.98;61.55;100733.22;3609656;39;20119;-67
2023/03/12 03:15:11;;;;;;;5.78;4.30;;;;;;;4.88;61.58;100737.16;3609852;39;20061;-67
2023/03/12 03:17:37;;;;;;;9.55;4.43;;;;;;;4.88;62.05;100734.50;3607287;39;20067;-67
2023/03/12 03:20:10;;;;;;;6.88;4.07;;;;;;;4.85;62.47;100727.53;3610970;39;20244;-67
2023/03/12 03:22:37;;;;;;;8.07;3.92;;;;;;;4.81;62.74;100731.22;3606887;39;20055;-67
2023/03/12 03:25:05;;;;;;;11.82;4.57;;;;;;;4.76;63.12;100727.03;3607372;39;20067;-67
2023/03/12 03:27:31;;;;;;;9.00;3.88;;;;;;;4.79;63.11;100718.88;3607166;39;20115;-67
2023/03/12 03:29:56;;;;;;;6.03;3.88;;;;;;;4.78;63.79;100723.34;3608601;39;20055;-67
2023/03/12 03:32:22;;;;;;;7.68;4.10;;;;;;;4.75;64.25;100723.47;3610097;39;20055;-69
2023/03/12 03:34:47;;;;;;;11.40;3.80;;;;;;;4.75;64.06;100718.16;3610297;39;20063;-69
2023/03/12 03:37:13;;;;;;;9.95;4.13;;;;;;;4.75;64.69;100715.50;3612649;39;20050;-69
2023/03/12 03:39:39;;;;;;;7.70;4.35;;;;;;;4.77;64.99;100718.97;3610062;39;20063;-68
2023/03/12 03:42:04;;;;;;;9.88;4.68;;;;;;;4.74;64.60;100711.09;3609559;39;20051;-68
2023/03/12 03:44:30;;;;;;;9.00;4.15;;;;;;;4.76;64.87;100711.06;3607271;39;20066;-68
2023/03/12 03:46:56;;;;;;;6.68;3.95;;;;;;;4.73;64.93;100704.06;3610371;39;20054;-68
2023/03/12 03:49:23;;;;;;;7.57;4.40;;;;;;;4.69;64.72;100693.56;3608990;39;20408;-68
2023/03/12 03:51:50;;;;;;;9.07;4.63;;;;;;;4.68;64.66;100684.72;3610797;39;20058;-68
2023/03/12 03:54:17;;;;;;;8.98;4.63;;;;;;;4.69;64.81;100681.13;3611435;39;20285;-68
2023/03/12 03:56:42;;;;;;;5.95;4.03;;;;;;;4.68;65.30;100678.53;3606752;39;20126;-69
2023/03/12 03:59:08;;;;;;;7.35;4.40;;;;;;;4.67;65.79;100671.47;3610894;39;20055;-68
2023/03/12 04:01:35;;;;;;;9.15;4.55;;;;;;;4.66;65.52;100675.91;3613126;39;20054;-68
2023/03/12 04:04:03;;;;;;;8.63;4.15;;;;;;;4.55;64.96;100659.50;3607058;39;20104;-69
2023/03/12 04:06:29;;;;;;;10.07;4.72;;;;;;;4.63;65.20;100676.03;3608964;39;20051;-68
2023/03/12 04:08:56;;;;;;;9.45;3.97;;;;;;;4.58;65.19;100662.91;3612188;39;20103;-68
2023/03/12 04:11:23;;;;;;;9.45;4.40;;;;;;;4.66;65.10;100665.25;3609048;39;20334;-68
2023/03/12 04:13:49;;;;;;;7.30;4.05;;;;;;;4.67;64.67;100669.69;3611755;39;20100;-69
2023/03/12 04:16:16;;;;;;;7.53;4.18;;;;;;;4.67;65.09;100658.16;3610513;39;20067;-69
2023/03/12 04:18:44;;;;;;;7.75;4.00;;;;;;;4.68;64.79;100647.44;3610219;39;20058;-69
2023/03/12 04:21:12;;;;;;;8.38;4.50;;;;;;;4.61;65.05;100633.50;3607957;39;20382;-68
2023/03/12 04:23:38;;;;;;;7.05;4.13;;;;;;;4.73;64.88;100644.59;3606829;39;20318;-68
2023/03/12 04:26:05;;;;;;;9.52;4.47;;;;;;;4.71;64.31;100644.66;3612980;39;20063;-68
2023/03/12 04:28:32;;;;;;;9.50;4.18;;;;;;;4.76;64.37;100639.16;3608684;39;20042;-68
2023/03/12 04:31:03;;;;;;;8.70;3.60;;;;;;;4.76;64.40;100625.84;3608515;39;20282;-68
2023/03/12 04:33:33;;;;;;;9.05;4.15;;;;;;;4.76;64.60;100618.72;3606175;39;20050;-68
2023/03/12 04:35:59;;;;;;;10.85;3.70;;;;;;;4.74;64.32;100612.59;3605539;39;20050;-68
2023/03/12 04:38:26;;;;;;;7.50;4.18;;;;;;;4.77;64.24;100607.13;3608723;39;20058;-68
2023/03/12 04:41:03;;;;;;;7.75;3.97;;;;;;;4.49;64.43;100561.28;3609765;39;20075;-69
2023/03/12 04:43:31;;;;;;;7.82;4.10;;;;;;;4.79;65.22;100610.59;3608799;39;20321;-68
2023/03/12 04:45:58;;;;;;;6.18;3.50;;;;;;;4.77;64.95;100612.47;3607795;39;20043;-69
2023/03/12 04:48:25;;;;;;;7.32;4.10;;;;;;;4.78;64.71;100616.84;3608867;39;20378;-69
2023/03/12 04:50:51;;;;;;;7.07;4.00;;;;;;;4.81;65.09;100623.84;3606720;39;20380;-70
2023/03/12 04:53:17;;;;;;;7.97;4.13;;;;;;;4.83;65.48;100614.00;3607693;39;20061;-69
2023/03/12 04:55:42;;;;;;;7.25;3.55;;;;;;;4.84;65.52;100611.25;3610244;39;20051;-69
2023/03/12 04:58:08;;;;;;;6.13;3.65;;;;;;;4.85;65.34;100597.03;3593599;39;20055;-69
2023/03/12 05:00:35;;;;;;;8.10;3.53;;;;;;;4.86;65.09;100604.09;3606074;39;20063;-69
2023/03/12 05:03:01;;;;;;;8.93;4.65;;;;;;;4.84;65.43;100584.63;3613473;39;20061;-69
2023/03/12 05:05:27;;;;;;;56.17;25.02;;;;;;;4.83;65.75;100587.38;3605161;39;20059;-69
2023/03/12 05:07:52;;;;;;;62.95;26.73;;;;;;;4.84;66.18;100579.31;3605440;39;20355;-69
2023/03/12 05:10:18;;;;;;;12.23;5.55;;;;;;;4.84;66.53;100579.31;3609841;39;20059;-68
2023/03/12 05:12:43;;;;;;;8.80;4.03;;;;;;;4.86;66.97;100577.47;3608011;39;20094;-67
2023/03/12 05:15:10;;;;;;;7.55;4.40;;;;;;;4.72;66.91;100537.22;3608104;39;20408;-67
2023/03/12 05:17:35;;;;;;;8.07;4.20;;;;;;;4.77;67.19;100551.22;3610988;39;20286;-67
2023/03/12 05:20:03;;;;;;;9.13;3.85;;;;;;;4.83;67.90;100564.28;3607756;39;20080;-68
2023/03/12 05:22:28;;;;;;;10.88;4.20;;;;;;;4.80;68.71;100568.88;3609174;39;20046;-68
2023/03/12 05:24:54;;;;;;;8.15;3.90;;;;;;;4.65;69.70;100541.06;3606972;39;20093;-68
2023/03/12 05:27:20;;;;;;;10.65;4.35;;;;;;;4.73;70.73;100562.94;3605140;39;20078;-68
2023/03/12 05:29:45;;;;;;;7.93;3.95;;;;;;;4.75;71.04;100561.06;3610110;39;20054;-68
2023/03/12 05:32:11;;;;;;;9.00;4.22;;;;;;;4.77;71.62;100572.50;3608990;39;20417;-68
2023/03/12 05:34:37;;;;;;;11.00;4.15;;;;;;;4.74;72.02;100561.13;3605832;39;20062;-68
2023/03/12 05:37:02;;;;;;;8.25;4.05;;;;;;;4.78;72.39;100563.59;3606165;39;20059;-68
2023/03/12 05:39:28;;;;;;;7.30;4.13;;;;;;;4.78;72.71;100552.94;3610461;39;20094;-68
2023/03/12 05:41:55;;;;;;;10.52;4.45;;;;;;;4.71;73.18;100542.63;3606160;39;20066;-69
2023/03/12 05:44:23;;;;;;;9.05;4.15;;;;;;;4.77;73.74;100545.88;3594540;39;20051;-68
2023/03/12 05:46:49;;;;;;;5.60;4.03;;;;;;;4.76;73.95;100541.50;3610138;39;20054;-68
2023/03/12 05:49:16;;;;;;;7.20;4.20;;;;;;;4.74;73.92;100546.00;3609664;39;20043;-69
2023/03/12 05:51:42;;;;;;;9.98;4.43;;;;;;;4.71;74.41;100542.63;3610268;39;20116;-69
2023/03/12 05:54:09;;;;;;;9.43;4.32;;;;;;;4.70;74.70;100544.41;3607095;39;20409;-69
2023/03/12 05:56:36;;;;;;;12.30;4.68;;;;;;;4.69;74.71;100537.34;3609660;39;20110;-68
2023/03/12 05:59:02;;;;;;;5.97;3.85;;;;;;;4.41;75.42;100503.91;3609324;39;20132;-69
2023/03/12 06:01:29;;;;;;;10.10;4.45;;;;;;;4.45;75.40;100499.34;3609661;39;20051;-69
2023/03/12 06:03:56;;;;;;;9.25;4.38;;;;;;;4.58;75.52;100520.97;3607845;39;20066;-69
2023/03/12 06:06:22;;;;;;;6.50;4.38;;;;;;;4.73;75.93;100549.63;3609996;39;20053;-69
2023/03/12 06:08:50;;;;;;;6.57;4.22;;;;;;;4.75;76.11;100557.53;3612687;39;20057;-68
2023/03/12 06:11:15;;;;;;;7.00;4.18;;;;;;;4.76;75.85;100546.81;3607779;39;20047;-68
2023/03/12 06:13:41;;;;;;;10.20;4.70;;;;;;;4.80;76.26;100551.09;3609085;39;20064;-67
2023/03/12 06:16:18;;;;;;;10.35;4.47;;;;;;;4.87;76.49;100555.22;3610302;39;20501;-69
2023/03/12 06:18:44;;;;;;;8.75;4.28;;;;;;;4.27;75.80;100458.38;3610173;39;20048;-69
2023/03/12 06:21:20;;;;;;;8.68;4.28;;;;;;;4.88;75.89;100559.63;3607504;39;20325;-68
2023/03/12 06:23:47;;;;;;;8.48;4.15;;;;;;;4.95;76.20;100575.31;3598719;39;20051;-68
2023/03/12 06:26:14;;;;;;;6.15;4.72;;;;;;;4.69;77.08;100532.03;3607536;39;20055;-68
2023/03/12 06:28:42;;;;;;;6.85;4.57;;;;;;;5.00;76.92;100565.34;3608381;39;20073;-68
2023/03/12 06:31:08;;;;;;;9.27;4.68;;;;;;;4.97;76.95;100563.66;3609628;39;20341;-67
2023/03/12 06:33:35;;;;;;;6.75;4.85;;;;;;;5.03;76.69;100563.41;3608637;39;20063;-68
2023/03/12 06:36:05;;;;;;;6.55;4.55;;;;;;;4.99;76.98;100560.97;3607805;39;20059;-68
2023/03/12 06:38:32;;;;;;;10.52;4.75;;;;;;;4.88;77.44;100537.44;3606006;39;20071;-68
2023/03/12 06:41:02;;;;;;;9.70;4.78;;;;;;;4.98;77.87;100546.78;3609082;39;20047;-68
2023/03/12 06:43:31;;;;;;;10.30;4.78;;;;;;;5.01;78.52;100546.66;3597643;39;20124;-68
2023/03/12 06:45:59;;;;;;;10.02;4.80;;;;;;;5.02;78.79;100535.06;3601918;39;20055;-68
2023/03/12 06:48:28;;;;;;;11.50;5.32;;;;;;;5.04;79.08;100526.97;3610167;39;20424;-69
2023/03/12 06:50:54;;;;;;;10.18;5.13;;;;;;;4.57;79.08;100447.38;3610986;39;20326;-69
2023/03/12 06:53:21;;;;;;;7.55;4.45;;;;;;;5.01;80.08;100512.03;3608733;39;20047;-68
2023/03/12 06:55:50;;;;;;;9.60;5.10;;;;;;;4.42;80.51;100412.50;3609103;39;20112;-68
2023/03/12 06:58:17;;;;;;;8.23;5.80;;;;;;;5.01;80.92;100516.44;3608119;39;20119;-67
2023/03/12 07:00:43;;;;;;;11.98;5.82;;;;;;;5.03;81.45;100519.94;3606953;39;20382;-68
2023/03/12 07:03:08;;;;;;;9.40;6.57;;;;;;;4.98;81.76;100505.94;3610001;39;20051;-67
2023/03/12 07:05:34;;;;;;;9.73;6.00;;;;;;;5.07;81.72;100510.84;3597173;39;20066;-67
2023/03/12 07:08:01;;;;;;;8.70;5.78;;;;;;;5.09;81.76;100509.84;3612302;39;20069;-67
2023/03/12 07:10:28;;;;;;;10.95;6.03;;;;;;;5.08;82.22;100509.94;3607521;39;20047;-67
2023/03/12 07:12:55;;;;;;;14.77;6.65;;;;;;;5.08;81.82;100501.94;3608366;39;20062;-67
2023/03/12 07:15:22;;;;;;;9.82;6.25;;;;;;;5.09;82.60;100501.88;3608473;39;20063;-66
2023/03/12 07:17:48;;;;;;;9.05;5.88;;;;;;;5.11;82.06;100507.16;3605954;39;20048;-67
2023/03/12 07:20:14;;;;;;;9.25;6.00;;;;;;;5.10;82.42;100506.25;3610466;39;20059;-67
2023/03/12 07:22:39;;;;;;;7.97;5.90;;;;;;;5.11;82.62;100512.47;3609276;39;20090;-67
2023/03/12 07:25:06;;;;;;;10.40;6.10;;;;;;;5.11;82.96;100512.47;3610853;39;20058;-66
2023/03/12 07:27:31;;;;;;;8.57;6.43;;;;;;;5.14;82.71;100504.34;3605932;39;20116;-66
2023/03/12 07:29:57;;;;;;;8.52;6.07;;;;;;;5.14;82.77;100525.66;3606662;39;20267;-67
2023/03/12 07:32:23;;;;;;;12.52;6.32;;;;;;;5.18;83.23;100515.72;3607373;39;20058;-66
2023/03/12 07:34:48;;;;;;;12.48;7.43;;;;;;;5.20;83.22;100522.72;3606851;39;20093;-66
2023/03/12 07:37:14;;;;;;;10.52;6.80;;;;;;;5.23;83.27;100525.25;3610963;39;20061;-65
2023/03/12 07:39:39;;;;;;;8.98;7.00;;;;;;;5.25;84.10;100523.38;3608837;39;20058;-67
2023/03/12 07:42:05;;;;;;;10.05;6.72;;;;;;;5.24;83.92;100529.66;3610048;39;20070;-67
2023/03/12 07:44:32;;;;;;;12.98;7.22;;;;;;;5.27;83.77;100518.84;3609498;39;20054;-66
2023/03/12 07:46:59;;;;;;;13.57;7.95;;;;;;;5.28;84.22;100523.22;3598683;39;20050;-63
2023/03/12 07:49:26;;;;;;;11.60;7.38;;;;;;;5.32;84.58;100530.16;3608318;39;20408;-63
2023/03/12 07:51:51;;;;;;;10.13;7.07;;;;;;;5.34;84.38;100525.63;3609269;39;20412;-65
2023/03/12 07:54:17;;;;;;;10.18;7.57;;;;;;;5.34;84.82;100514.97;3609452;39;20054;-65
2023/03/12 07:56:43;;;;;;;10.65;8.07;;;;;;;5.38;84.63;100530.81;3608251;39;20055;-67
2023/03/12 07:59:08;;;;;;;11.38;7.93;;;;;;;5.41;84.98;100520.00;3606542;39;20077;-68
2023/03/12 08:01:34;;;;;;;13.25;8.27;;;;;;;5.39;85.00;100521.88;3605170;39;20069;-69
2023/03/12 08:04:01;;;;;;;12.88;8.15;;;;;;;5.48;85.58;100517.00;3607551;39;20060;-69
2023/03/12 08:06:28;;;;;;;15.25;8.50;;;;;;;5.52;85.77;100515.06;3607802;39;20047;-70
2023/03/12 08:08:54;;;;;;;13.18;8.85;;;;;;;5.58;85.83;100509.44;3609715;39;20061;-69
2023/03/12 08:11:20;;;;;;;11.60;8.40;;;;;;;5.60;85.80;100507.56;3612143;39;20323;-70
2023/03/12 08:13:46;;;;;;;12.23;8.07;;;;;;;5.57;86.10;100505.91;3609410;39;20063;-70
2023/03/12 08:16:13;;;;;;;12.65;9.15;;;;;;;5.48;86.00;100474.34;3610871;39;20389;-70
2023/03/12 08:18:41;;;;;;;12.38;7.93;;;;;;;5.25;85.95;100430.09;3606605;39;20063;-70
2023/03/12 08:21:07;;;;;;;10.18;8.38;;;;;;;5.77;86.24;100518.34;3608938;39;20070;-69
2023/03/12 08:23:32;;;;;;;10.15;7.88;;;;;;;5.84;86.52;100513.56;3596793;39;20097;-70
2023/03/12 08:25:58;;;;;;;8.77;7.47;;;;;;;5.92;86.97;100521.19;3607953;39;20378;-70
2023/03/12 08:28:24;;;;;;;11.98;8.30;;;;;;;5.99;87.34;100520.00;3608366;39;20058;-70
2023/03/12 08:30:58;;;;;;;11.40;8.40;;;;;;;6.06;86.84;100521.44;3607329;39;20063;-70
2023/03/12 08:33:24;;;;;;;10.50;8.02;;;;;;;5.91;87.84;100484.78;3609385;39;20051;-70
2023/03/12 08:35:50;;;;;;;10.55;8.52;;;;;;;6.10;87.69;100507.00;3606529;39;20062;-70
2023/03/12 08:38:15;;;;;;;11.60;7.90;;;;;;;6.30;87.86;100531.88;3608341;39;20051;-70
2023/03/12 08:40:41;;;;;;;11.88;7.90;;;;;;;6.35;88.26;100540.53;3606795;39;20394;-70
2023/03/12 08:43:07;;;;;;;9.75;7.72;;;;;;;6.46;88.32;100538.19;3608392;39;20119;-70
2023/03/12 08:45:36;;;;;;;10.82;7.97;;;;;;;6.50;88.42;100535.28;3606678;39;20074;-70
2023/03/12 08:48:03;;;;;;;9.98;8.27;;;;;;;6.60;88.64;100542.84;3609106;39;20043;-70
2023/03/12 08:50:30;;;;;;;9.32;8.15;;;;;;;6.37;88.61;100503.91;3607469;39;20119;-70
2023/03/12 08:52:58;;;;;;;11.48;8.70;;;;;;;6.74;88.56;100551.03;3608490;39;20066;-70
2023/03/12 08:55:26;;;;;;;12.15;9.13;;;;;;;6.80;88.95;100552.53;3609368;39;20050;-71
2023/03/12 08:57:54;;;;;;;12.40;8.93;;;;;;;6.86;88.96;100547.72;3609461;39;20040;-69
2023/03/12 09:00:20;;;;;;;15.50;10.55;;;;;;;6.91;88.73;100550.16;3609778;39;20047;-69
2023/03/12 09:02:46;;;;;;;12.90;10.70;;;;;;;7.04;89.15;100550.38;3609015;39;20047;-70
2023/03/12 09:05:13;;;;;;;17.40;11.70;;;;;;;7.11;88.94;100554.50;3610076;39;20057;-70
2023/03/12 09:07:40;;;;;;;19.00;11.73;;;;;;;6.83;89.42;100493.59;3609524;39;20084;-72
2023/03/12 09:10:06;;;;;;;16.80;11.98;;;;;;;7.24;89.79;100549.38;3609515;39;20054;-71
2023/03/12 09:12:32;;;;;;;17.92;12.20;;;;;;;7.31;90.15;100540.06;3611944;39;20124;-71
2023/03/12 09:14:57;;;;;;;16.45;12.23;;;;;;;7.40;89.23;100555.63;3606698;39;20087;-69
2023/03/12 09:17:23;;;;;;;18.08;13.02;;;;;;;7.45;89.85;100540.19;3608757;39;20084;-71
2023/03/12 09:19:49;;;;;;;16.30;12.55;;;;;;;7.61;89.71;100553.59;3608605;39;20047;-69
2023/03/12 09:22:14;;;;;;;17.48;13.25;;;;;;;7.75;89.95;100542.16;3604049;39;20051;-71
2023/03/12 09:24:40;;;;;;;17.35;12.27;;;;;;;7.86;90.27;100553.13;3609102;39;20073;-70
2023/03/12 09:27:06;;;;;;;15.75;13.27;;;;;;;7.96;89.99;100548.13;3606233;39;20058;-70
2023/03/12 09:29:32;;;;;;;17.33;12.75;;;;;;;8.03;89.66;100542.38;3607244;39;20066;-69
2023/03/12 09:31:58;;;;;;;17.42;13.38;;;;;;;8.13;89.41;100554.28;3610458;39;20087;-71
2023/03/12 09:34:24;;;;;;;20.35;14.73;;;;;;;8.19;90.42;100562.94;3609273;39;20506;-69
2023/03/12 09:36:49;;;;;;;21.92;15.00;;;;;;;8.26;90.40;100559.81;3615370;39;20343;-72
2023/03/12 09:39:16;;;;;;;19.95;14.98;;;;;;;8.40;89.93;100560.88;3617613;39;20058;-69
2023/03/12 09:41:46;;;;;;;17.70;15.45;;;;;;;8.46;89.25;100550.66;3607423;39;20051;-69
2023/03/12 09:44:29;;;;;;;20.05;14.82;;;;;;;8.57;89.24;100547.38;3607957;39;20065;-69
2023/03/12 09:47:06;;;;;;;19.48;14.93;;;;;;;8.68;89.46;100554.78;3607561;39;20055;-71
2023/03/12 09:49:55;;;;;;;18.40;16.27;;;;;;;8.75;89.09;100559.72;3611253;39;20189;-71
2023/03/12 09:52:59;;;;;;;17.35;15.50;;;;;;;8.83;88.63;100565.47;3608953;39;20318;-70
2023/03/12 09:55:36;;;;;;;19.73;16.25;;;;;;;8.88;88.95;100573.25;3613682;39;20047;-69
2023/03/12 09:58:01;;;;;;;20.23;15.50;;;;;;;8.93;89.03;100581.88;3614029;39;20051;-69
2023/03/12 10:00:34;;;;;;;19.63;15.77;;;;;;;8.78;89.02;100561.34;3612752;39;20047;-69
2023/03/12 10:03:46;;;;;;;19.05;16.23;;;;;;;9.01;89.61;100581.44;3609121;39;20047;-70
2023/03/12 10:06:26;;;;;;;20.40;16.45;;;;;;;9.06;88.70;100585.56;3611268;39;20370;-69
2023/03/12 10:09:35;;;;;;;20.25;16.98;;;;;;;9.16;89.87;100588.53;3612300;39;20061;-70
2023/03/12 10:12:29;;;;;;;20.20;16.25;;;;;;;9.26;89.19;100586.19;3606000;39;20106;-70
2023/03/12 10:15:21;;;;;;;23.70;18.00;;;;;;;9.33;89.44;100579.50;3609209;39;20042;-70
2023/03/12 10:18:03;;;;;;;22.95;16.92;;;;;;;9.43;89.48;100586.03;3608957;39;20061;-70
2023/03/12 10:21:00;;;;;;;26.42;18.60;;;;;;;9.47;89.02;100578.66;3609477;39;20047;-70
2023/03/12 10:24:12;;;;;;;21.77;18.48;;;;;;;9.54;89.05;100578.19;3603250;39;20335;-70
2023/03/12 10:26:46;;;;;;;25.05;17.88;;;;;;;9.60;88.77;100576.09;3602341;39;20047;-70
2023/03/12 10:29:21;;;;;;;21.17;16.20;;;;;;;9.64;88.45;100577.59;3612677;39;20051;-70
2023/03/12 10:32:00;;;;;;;23.77;18.88;;;;;;;9.70;88.81;100577.22;3613363;39;20400;-70
2023/03/12 10:34:41;;;;;;;25.75;18.50;;;;;;;9.70;88.15;100580.78;3615312;39;20061;-70
2023/03/12 10:37:27;;;;;;;26.30;18.88;;;;;;;9.79;88.45;100586.53;3607538;39;20057;-70
2023/03/12 10:39:55;;;;;;;30.08;19.40;;;;;;;9.84;89.07;100585.31;3608657;39;20051;-69
2023/03/12 10:42:25;;;;;;;29.23;19.17;;;;;;;9.90;88.71;100576.88;3607535;39;20119;-69
2023/03/12 10:44:58;;;;;;;29.85;18.70;;;;;;;10.02;88.93;100593.13;3608385;39;20043;-70
2023/03/12 10:47:36;;;;;;;32.77;19.03;;;;;;;10.13;88.95;100571.84;3607942;39;20063;-70
2023/03/12 10:50:17;;;;;;;28.63;18.70;;;;;;;10.23;87.79;100581.88;3613589;39;20054;-70
2023/03/12 10:52:46;;;;;;;31.73;18.20;;;;;;;10.37;87.78;100573.00;3608074;39;20058;-70
2023/03/12 10:55:31;;;;;;;26.60;18.50;;;;;;;10.43;87.83;100572.59;3606060;39;20118;-71
2023/03/12 10:57:57;;;;;;;30.00;16.92;;;;;;;10.53;87.53;100583.59;3607915;39;20426;-71
2023/03/12 11:00:31;;;;;;;30.92;18.25;;;;;;;10.67;87.12;100580.00;3608357;39;20066;-70
2023/03/12 11:03:17;;;;;;;30.48;15.82;;;;;;;10.83;87.21;100583.38;3598894;39;20135;-71
2023/03/12 11:05:53;;;;;;;32.67;16.00;;;;;;;11.04;86.69;100588.31;3609402;39;20658;-71
2023/03/12 11:08:33;;;;;;;29.23;14.27;;;;;;;11.08;84.93;100579.06;3609880;39;20362;-71
2023/03/12 11:11:01;;;;;;;28.35;14.32;;;;;;;11.12;84.70;100580.56;3607470;39;20047;-71
2023/03/12 11:13:36;;;;;;;24.05;14.00;;;;;;;10.83;83.86;100532.28;3608664;39;20051;-70
2023/03/12 11:16:27;;;;;;;30.00;14.27;;;;;;;11.27;84.06;100592.09;3608662;39;20163;-71
2023/03/12 11:19:00;;;;;;;29.10;13.80;;;;;;;11.28;83.04;100600.06;3608399;39;20305;-71
2023/03/12 11:21:29;;;;;;;28.58;13.65;;;;;;;11.21;82.69;100584.47;3608154;39;20085;-70
2023/03/12 11:23:57;;;;;;;30.00;14.35;;;;;;;11.31;82.76;100591.78;3606506;39;20056;-70
2023/03/12 11:26:30;;;;;;;27.48;12.80;;;;;;;11.33;82.77;100600.63;3598651;39;20440;-70
2023/03/12 11:29:10;;;;;;;25.95;11.95;;;;;;;11.31;82.67;100597.16;3607744;39;20079;-70
2023/03/12 11:32:05;;;;;;;27.55;12.35;;;;;;;11.27;82.70;100584.03;3605684;39;20063;-71
2023/03/12 11:34:37;;;;;;;31.17;11.55;;;;;;;11.32;82.58;100592.63;3606729;39;20049;-70
2023/03/12 11:37:45;;;;;;;26.70;12.25;;;;;;;11.36;81.89;100600.41;3608421;39;20086;-70